Buoy 41938

sailwx.info

Track history (hours):
 
Tides and Currents Weather Stations Pressure Air Temp Water Temp Dewpoint Dewpoint Depression Visibility Wind Speed Wind Dir Waves Ship Positions

Drifting buoy 41938

Last reported at 2014-Sep-01 02:00 UTC. Time now 2014-Sep-01 07:31 UTC.
Position N 32°13' W 072°33'.

Barometer 1021.9 mb
Water temperature 27.4 ° C

Date/timePositionNaut miles runAvg speedWind from/ knotsBaromVisibWave heightAir tempDewpointWater temp
2014-Sep-01 02:00N 32°13' W 072°33'1 0.8 1021.9 27.4
2014-Sep-01 01:00N 32°14' W 072°32'1 0.8 1021.6 27.5
2014-Sep-01 00:00N 32°14' W 072°32'0 0.1 1021.5 27.6
2014-Aug-31 22:00N 32°14' W 072°32'1 0.3 1021.4 27.9
2014-Aug-31 20:00N 32°15' W 072°32'2 0.5 1021.6 28.0
2014-Aug-31 15:00N 32°15' W 072°35'0 0.3 1023.7 27.5
2014-Aug-31 14:00N 32°15' W 072°35'0 0.0 1023.5 27.3
2014-Aug-31 13:00N 32°15' W 072°35'2 0.8 1023.6 27.2
2014-Aug-31 11:00N 32°14' W 072°36'1 1.2 1023.5 27.2
2014-Aug-31 10:00N 32°12' W 072°36'0 0.4 1023.2 27.2
2014-Aug-31 09:00N 32°13' W 072°36'3 1.0 1023.0 27.2
2014-Aug-31 06:00N 32°11' W 072°33'0 0.0 1022.8 27.3
2014-Aug-31 03:00N 32°11' W 072°33'0 0.5 1022.6 27.4
2014-Aug-31 02:00N 32°11' W 072°32'1 0.7 1022.5 27.5
2014-Aug-31 01:00N 32°12' W 072°32'0 0.1 1022.4 27.5
2014-Aug-31 00:00N 32°12' W 072°32'2 0.9 1022.2 27.5
2014-Aug-30 22:00N 32°13' W 072°33'1 0.4 1021.9 27.7
2014-Aug-30 20:00N 32°14' W 072°33'3 1.4 1022.4 27.8
2014-Aug-30 18:00N 32°13' W 072°36'0 0.1 1023.0 28.1
2014-Aug-30 15:00N 32°13' W 072°36'2 2.4 1023.7 27.7
2014-Aug-30 14:00N 32°10' W 072°36'0 0.1 1023.6 27.5
2014-Aug-30 11:00N 32°10' W 072°36'1 0.9 1022.6 27.3
2014-Aug-30 10:00N 32°10' W 072°35'0 0.3 1022.1 27.4
2014-Aug-30 09:00N 32°10' W 072°35'3 0.9 1022.0 27.4
2014-Aug-30 06:00N 32°10' W 072°32'1 0.1 1021.7 27.5
2014-Aug-30 01:00N 32°11' W 072°32'2 1.5 1021.0 27.6
2014-Aug-30 00:00N 32°12' W 072°33'1 0.4 1020.7 27.8
2014-Aug-29 21:00N 32°13' W 072°34'3 3.0 1019.7 28.3
2014-Aug-29 20:00N 32°12' W 072°38'1 0.5 1019.8 28.3
2014-Aug-29 18:00N 32°12' W 072°37'0 0.0 1020.3 28.4
2014-Aug-29 17:00N 32°12' W 072°37'2 1.8 1020.8 28.1
2014-Aug-29 16:00N 32°10' W 072°36'0 0.0 1020.9 27.6
2014-Aug-29 15:00N 32°10' W 072°36'3 0.4 1020.5 27.3
2014-Aug-29 07:00N 32°10' W 072°32'2 0.3 1018.1 27.1
2014-Aug-29 01:00N 32°12' W 072°33'0 0.0 1017.7 27.2
2014-Aug-29 00:00N 32°12' W 072°33'1 0.4 1017.1 27.2
2014-Aug-28 20:00N 32°11' W 072°34'0 0.5 1016.1 27.3
2014-Aug-28 19:00N 32°11' W 072°35'0 0.3 1016.3 27.3
2014-Aug-28 18:00N 32°11' W 072°35'1 0.3 1016.6 27.2
2014-Aug-28 16:00N 32°10' W 072°35'1 0.7 1016.9 27.1
2014-Aug-28 15:00N 32°10' W 072°35'2 2.2 1016.9 27.1
2014-Aug-28 14:00N 32°09' W 072°32'0 0.0 1016.5 27.1
2014-Aug-28 13:00N 32°09' W 072°32'1 0.4 1015.6 27.0
2014-Aug-28 10:00N 32°10' W 072°31'0 0.0 1013.6 27.0
2014-Aug-28 09:00N 32°10' W 072°31'4 3.7 1013.1 27.0
2014-Aug-28 08:00N 32°13' W 072°32'0 0.0 1012.5 27.1
2014-Aug-28 07:00N 32°13' W 072°32'0 0.0 1012.2 27.1
2014-Aug-28 06:00N 32°13' W 072°32'0 0.0 1011.9 27.1
2014-Aug-28 05:00N 32°13' W 072°32'0 0.1 1011.4 27.1
2014-Aug-28 02:00N 32°13' W 072°32'1 0.6 1009.2 27.1
2014-Aug-28 01:00N 32°14' W 072°33'0 0.0 1007.9 27.1
2014-Aug-28 00:00N 32°14' W 072°33'1 0.7 1006.7 27.1
2014-Aug-27 22:00N 32°14' W 072°34'1 0.9 1003.7 27.1
2014-Aug-27 21:00N 32°14' W 072°33'0 0.2 1002.2 27.1
2014-Aug-27 19:00N 32°14' W 072°33'0 0.3 997.3 27.2
2014-Aug-27 18:00N 32°13' W 072°33'1 1.2 996.7 27.2
2014-Aug-27 17:00N 32°13' W 072°32'2 0.8 995.8 27.2
2014-Aug-27 15:00N 32°12' W 072°31'0 0.0 995.2 27.3
2014-Aug-27 14:00N 32°12' W 072°31'3 3.4 995.5 27.3
2014-Aug-27 13:00N 32°10' W 072°27'0 0.2 996.5 27.4
2014-Aug-27 11:00N 32°10' W 072°27'0 0.4 998.2 27.5
2014-Aug-27 10:00N 32°10' W 072°27'1 0.7 999.5 27.5
2014-Aug-27 09:00N 32°09' W 072°27'1 0.6 1000.9 27.5
2014-Aug-27 07:00N 32°08' W 072°27'2 0.9 1003.5 27.6
2014-Aug-27 05:00N 32°06' W 072°27'0 0.0 1005.3 27.6
2014-Aug-27 04:00N 32°06' W 072°27'0 0.0 1006.4 27.6
2014-Aug-27 02:00N 32°06' W 072°27'1 0.7 1007.9 27.7
2014-Aug-27 01:00N 32°06' W 072°27'2 0.8 1008.0 27.7
2014-Aug-26 22:00N 32°04' W 072°25'0 0.1 1009.1 27.7
2014-Aug-26 21:00N 32°04' W 072°25'1 1.0 1009.7 27.7
2014-Aug-26 20:00N 32°03' W 072°24'1 0.6 1009.8 27.7
2014-Aug-26 19:00N 32°03' W 072°23'0 0.5 1010.3 27.7
2014-Aug-26 18:00N 32°03' W 072°23'0 0.2 1010.8 27.7
2014-Aug-26 17:00N 32°03' W 072°23'0 0.2 1011.4 27.7
2014-Aug-26 15:00N 32°03' W 072°22'1 0.2 1011.7 27.7
2014-Aug-26 11:00N 32°04' W 072°23'1 0.5 1011.0 27.7
2014-Aug-26 10:00N 32°04' W 072°24'1 0.6 1010.9 27.7
2014-Aug-26 09:00N 32°03' W 072°24'0 0.0 1011.0 27.7
2014-Aug-26 08:00N 32°03' W 072°24'1 0.9 1011.0 27.7
2014-Aug-26 07:00N 32°03' W 072°25'2 0.8 1011.2 27.7
2014-Aug-26 05:00N 32°01' W 072°25'0 0.0 1011.5 27.7
2014-Aug-26 02:00N 32°01' W 072°25'1 1.4 1011.5 27.8
2014-Aug-26 01:00N 32°00' W 072°24'1 0.6 1011.2 27.8
2014-Aug-26 00:00N 32°00' W 072°24'0 0.0 1011.0 27.8
2014-Aug-25 23:00N 32°00' W 072°24'1 0.7 1011.0 27.8
2014-Aug-25 22:00N 31°60' W 072°24'0 0.0 1010.7 27.8
2014-Aug-25 21:00N 31°60' W 072°24'1 0.6 1010.7 27.8
2014-Aug-25 19:00N 31°59' W 072°22'0 0.3 1010.7 27.9
2014-Aug-25 18:00N 31°59' W 072°22'0 0.1 1010.9 27.9
2014-Aug-25 15:00N 31°60' W 072°22'0 0.1 1011.7 27.8
2014-Aug-25 14:00N 31°60' W 072°22'0 0.1 1011.5 27.8
2014-Aug-25 11:00N 31°59' W 072°23'0 0.2 1010.8 27.8
2014-Aug-25 10:00N 31°60' W 072°23'1 0.7 1010.5 27.8
2014-Aug-25 09:00N 31°59' W 072°23'0 0.3 1010.3 27.8
2014-Aug-25 08:00N 31°59' W 072°24'1 1.1 1010.2 27.8
2014-Aug-25 07:00N 31°58' W 072°23'0 0.0 1010.5 27.8
2014-Aug-25 06:00N 31°58' W 072°23'1 1.3 1011.0 27.8
2014-Aug-25 05:00N 31°57' W 072°24'0 0.1 1011.3 27.8
2014-Aug-25 02:00N 31°57' W 072°24'1 1.0 1011.4 27.8
2014-Aug-25 01:00N 31°56' W 072°23'1 1.5 1011.1 27.8
2014-Aug-25 00:00N 31°56' W 072°22'0 0.0 1010.8 27.9
2014-Aug-24 22:00N 31°56' W 072°22'1 0.3 1010.4 27.9
2014-Aug-24 19:00N 31°55' W 072°21'0 0.0 1011.1 27.8
2014-Aug-24 17:00N 31°55' W 072°21'0 0.2 1012.5 27.7
2014-Aug-24 15:00N 31°56' W 072°22'0 0.3 1012.6 27.7
2014-Aug-24 14:00N 31°56' W 072°21'0 0.0 1011.7 27.7
2014-Aug-24 13:00N 31°56' W 072°21'1 1.1 1011.2 27.8
2014-Aug-24 12:00N 31°55' W 072°23'0 0.0 1010.5 27.2
2014-Aug-24 11:00N 31°55' W 072°23'0 0.3 1010.2 27.1
2014-Aug-24 10:00N 31°55' W 072°22'0 0.0 1010.6 28.0
2014-Aug-24 09:00N 31°55' W 072°22'0 0.2 1010.3 28.0
2014-Aug-24 08:00N 31°54' W 072°22'1 0.7 1010.4 28.0
2014-Aug-24 07:00N 31°54' W 072°23'0 0.1 1010.8 28.0
2014-Aug-24 06:00N 31°54' W 072°23'1 0.5 1011.3 28.0
2014-Aug-24 03:00N 31°53' W 072°23'1 1.4 1012.3 27.8
2014-Aug-24 02:00N 31°52' W 072°22'0 0.3 1012.6 27.9
2014-Aug-24 01:00N 31°52' W 072°22'0 0.2 1012.7 27.8
2014-Aug-24 00:00N 31°52' W 072°22'2 0.6 1012.6 28.0
2014-Aug-23 21:00N 31°51' W 072°20'0 0.1 1011.9 28.1
2014-Aug-23 20:00N 31°51' W 072°20'1 0.6 1012.4 28.1
2014-Aug-23 19:00N 31°51' W 072°20'0 0.2 1013.0 28.1
2014-Aug-23 17:00N 31°51' W 072°19'1 0.2 1013.9 28.0
2014-Aug-23 14:00N 31°52' W 072°19'1 0.7 1014.1 27.9
2014-Aug-23 13:00N 31°51' W 072°20'0 0.0 1014.0 27.9
2014-Aug-23 12:00N 31°51' W 072°20'0 0.2 1014.1 27.9
2014-Aug-23 10:00N 31°51' W 072°20'0 0.2 1013.1 27.9
2014-Aug-23 09:00N 31°51' W 072°20'0 0.4 1013.1 27.9
2014-Aug-23 08:00N 31°51' W 072°20'2 0.9 1012.9 28.0
2014-Aug-23 06:00N 31°50' W 072°18'0 0.0 1014.0 28.0
2014-Aug-23 02:00N 31°50' W 072°18'1 0.6 1015.2 28.0
2014-Aug-23 01:00N 31°51' W 072°18'0 0.2 1015.4 28.0
2014-Aug-22 23:00N 31°51' W 072°17'0 0.4 1014.8 28.1
2014-Aug-22 22:00N 31°51' W 072°18'0 0.1 1015.1 28.1
2014-Aug-22 20:00N 31°51' W 072°18'1 0.1 1015.6 28.1
2014-Aug-22 15:00N 31°52' W 072°18'0 0.0 1017.6 28.0
2014-Aug-22 14:00N 31°52' W 072°18'0 0.1 1018.2 28.0
2014-Aug-22 11:00N 31°51' W 072°18'1 0.6 1017.5 27.9
2014-Aug-22 10:00N 31°51' W 072°18'0 0.1 1017.1 27.9
2014-Aug-22 09:00N 31°51' W 072°18'1 0.6 1017.1 28.0
2014-Aug-22 08:00N 31°50' W 072°18'1 0.5 1017.2 28.0
2014-Aug-22 06:00N 31°50' W 072°17'0 0.1 1017.7 28.0
2014-Aug-22 02:00N 31°51' W 072°17'   1018.9 28.0
Track history (hours):
 
Tides and Currents Weather Stations Pressure Air Temp Water Temp Dewpoint Dewpoint Depression Visibility Wind Speed Wind Dir Waves Ship Positions

Drifting buoy 41938

Last reported at 2014-Sep-01 02:00 UTC. Time now 2014-Sep-01 07:31 UTC.
Position N 32°13' W 072°33'.

Barometer 1021.9 mb
Water temperature 27.4 ° C

Date/timePositionNaut miles runAvg speedWind from/ knotsBaromVisibWave heightAir tempDewpointWater temp
2014-Sep-01 02:00N 32°13' W 072°33'1 0.8 1021.9 27.4
2014-Sep-01 01:00N 32°14' W 072°32'1 0.8 1021.6 27.5
2014-Sep-01 00:00N 32°14' W 072°32'0 0.1 1021.5 27.6
2014-Aug-31 22:00N 32°14' W 072°32'1 0.3 1021.4 27.9
2014-Aug-31 20:00N 32°15' W 072°32'2 0.5 1021.6 28.0
2014-Aug-31 15:00N 32°15' W 072°35'0 0.3 1023.7 27.5
2014-Aug-31 14:00N 32°15' W 072°35'0 0.0 1023.5 27.3
2014-Aug-31 13:00N 32°15' W 072°35'2 0.8 1023.6 27.2
2014-Aug-31 11:00N 32°14' W 072°36'1 1.2 1023.5 27.2
2014-Aug-31 10:00N 32°12' W 072°36'0 0.4 1023.2 27.2
2014-Aug-31 09:00N 32°13' W 072°36'3 1.0 1023.0 27.2
2014-Aug-31 06:00N 32°11' W 072°33'0 0.0 1022.8 27.3
2014-Aug-31 03:00N 32°11' W 072°33'0 0.5 1022.6 27.4
2014-Aug-31 02:00N 32°11' W 072°32'1 0.7 1022.5 27.5
2014-Aug-31 01:00N 32°12' W 072°32'0 0.1 1022.4 27.5
2014-Aug-31 00:00N 32°12' W 072°32'2 0.9 1022.2 27.5
2014-Aug-30 22:00N 32°13' W 072°33'1 0.4 1021.9 27.7
2014-Aug-30 20:00N 32°14' W 072°33'3 1.4 1022.4 27.8
2014-Aug-30 18:00N 32°13' W 072°36'0 0.1 1023.0 28.1
2014-Aug-30 15:00N 32°13' W 072°36'2 2.4 1023.7 27.7
2014-Aug-30 14:00N 32°10' W 072°36'0 0.1 1023.6 27.5
2014-Aug-30 11:00N 32°10' W 072°36'1 0.9 1022.6 27.3
2014-Aug-30 10:00N 32°10' W 072°35'0 0.3 1022.1 27.4
2014-Aug-30 09:00N 32°10' W 072°35'3 0.9 1022.0 27.4
2014-Aug-30 06:00N 32°10' W 072°32'1 0.1 1021.7 27.5
2014-Aug-30 01:00N 32°11' W 072°32'2 1.5 1021.0 27.6
2014-Aug-30 00:00N 32°12' W 072°33'1 0.4 1020.7 27.8
2014-Aug-29 21:00N 32°13' W 072°34'3 3.0 1019.7 28.3
2014-Aug-29 20:00N 32°12' W 072°38'1 0.5 1019.8 28.3
2014-Aug-29 18:00N 32°12' W 072°37'0 0.0 1020.3 28.4
2014-Aug-29 17:00N 32°12' W 072°37'2 1.8 1020.8 28.1
2014-Aug-29 16:00N 32°10' W 072°36'0 0.0 1020.9 27.6
2014-Aug-29 15:00N 32°10' W 072°36'3 0.4 1020.5 27.3
2014-Aug-29 07:00N 32°10' W 072°32'2 0.3 1018.1 27.1
2014-Aug-29 01:00N 32°12' W 072°33'0 0.0 1017.7 27.2
2014-Aug-29 00:00N 32°12' W 072°33'1 0.4 1017.1 27.2
2014-Aug-28 20:00N 32°11' W 072°34'0 0.5 1016.1 27.3
2014-Aug-28 19:00N 32°11' W 072°35'0 0.3 1016.3 27.3
2014-Aug-28 18:00N 32°11' W 072°35'1 0.3 1016.6 27.2
2014-Aug-28 16:00N 32°10' W 072°35'1 0.7 1016.9 27.1
2014-Aug-28 15:00N 32°10' W 072°35'2 2.2 1016.9 27.1
2014-Aug-28 14:00N 32°09' W 072°32'0 0.0 1016.5 27.1
2014-Aug-28 13:00N 32°09' W 072°32'1 0.4 1015.6 27.0
2014-Aug-28 10:00N 32°10' W 072°31'0 0.0 1013.6 27.0
2014-Aug-28 09:00N 32°10' W 072°31'4 3.7 1013.1 27.0
2014-Aug-28 08:00N 32°13' W 072°32'0 0.0 1012.5 27.1
2014-Aug-28 07:00N 32°13' W 072°32'0 0.0 1012.2 27.1
2014-Aug-28 06:00N 32°13' W 072°32'0 0.0 1011.9 27.1
2014-Aug-28 05:00N 32°13' W 072°32'0 0.1 1011.4 27.1
2014-Aug-28 02:00N 32°13' W 072°32'1 0.6 1009.2 27.1
2014-Aug-28 01:00N 32°14' W 072°33'0 0.0 1007.9 27.1
2014-Aug-28 00:00N 32°14' W 072°33'1 0.7 1006.7 27.1
2014-Aug-27 22:00N 32°14' W 072°34'1 0.9 1003.7 27.1
2014-Aug-27 21:00N 32°14' W 072°33'0 0.2 1002.2 27.1
2014-Aug-27 19:00N 32°14' W 072°33'0 0.3 997.3 27.2
2014-Aug-27 18:00N 32°13' W 072°33'1 1.2 996.7 27.2
2014-Aug-27 17:00N 32°13' W 072°32'2 0.8 995.8 27.2
2014-Aug-27 15:00N 32°12' W 072°31'0 0.0 995.2 27.3
2014-Aug-27 14:00N 32°12' W 072°31'3 3.4 995.5 27.3
2014-Aug-27 13:00N 32°10' W 072°27'0 0.2 996.5 27.4
2014-Aug-27 11:00N 32°10' W 072°27'0 0.4 998.2 27.5
2014-Aug-27 10:00N 32°10' W 072°27'1 0.7 999.5 27.5
2014-Aug-27 09:00N 32°09' W 072°27'1 0.6 1000.9 27.5
2014-Aug-27 07:00N 32°08' W 072°27'2 0.9 1003.5 27.6
2014-Aug-27 05:00N 32°06' W 072°27'0 0.0 1005.3 27.6
2014-Aug-27 04:00N 32°06' W 072°27'0 0.0 1006.4 27.6
2014-Aug-27 02:00N 32°06' W 072°27'1 0.7 1007.9 27.7
2014-Aug-27 01:00N 32°06' W 072°27'2 0.8 1008.0 27.7
2014-Aug-26 22:00N 32°04' W 072°25'0 0.1 1009.1 27.7
2014-Aug-26 21:00N 32°04' W 072°25'1 1.0 1009.7 27.7
2014-Aug-26 20:00N 32°03' W 072°24'1 0.6 1009.8 27.7
2014-Aug-26 19:00N 32°03' W 072°23'0 0.5 1010.3 27.7
2014-Aug-26 18:00N 32°03' W 072°23'0 0.2 1010.8 27.7
2014-Aug-26 17:00N 32°03' W 072°23'0 0.2 1011.4 27.7
2014-Aug-26 15:00N 32°03' W 072°22'1 0.2 1011.7 27.7
2014-Aug-26 11:00N 32°04' W 072°23'1 0.5 1011.0 27.7
2014-Aug-26 10:00N 32°04' W 072°24'1 0.6 1010.9 27.7
2014-Aug-26 09:00N 32°03' W 072°24'0 0.0 1011.0 27.7
2014-Aug-26 08:00N 32°03' W 072°24'1 0.9 1011.0 27.7
2014-Aug-26 07:00N 32°03' W 072°25'2 0.8 1011.2 27.7
2014-Aug-26 05:00N 32°01' W 072°25'0 0.0 1011.5 27.7
2014-Aug-26 02:00N 32°01' W 072°25'1 1.4 1011.5 27.8
2014-Aug-26 01:00N 32°00' W 072°24'1 0.6 1011.2 27.8
2014-Aug-26 00:00N 32°00' W 072°24'0 0.0 1011.0 27.8
2014-Aug-25 23:00N 32°00' W 072°24'1 0.7 1011.0 27.8
2014-Aug-25 22:00N 31°60' W 072°24'0 0.0 1010.7 27.8
2014-Aug-25 21:00N 31°60' W 072°24'1 0.6 1010.7 27.8
2014-Aug-25 19:00N 31°59' W 072°22'0 0.3 1010.7 27.9
2014-Aug-25 18:00N 31°59' W 072°22'0 0.1 1010.9 27.9
2014-Aug-25 15:00N 31°60' W 072°22'0 0.1 1011.7 27.8
2014-Aug-25 14:00N 31°60' W 072°22'0 0.1 1011.5 27.8
2014-Aug-25 11:00N 31°59' W 072°23'0 0.2 1010.8 27.8
2014-Aug-25 10:00N 31°60' W 072°23'1 0.7 1010.5 27.8
2014-Aug-25 09:00N 31°59' W 072°23'0 0.3 1010.3 27.8
2014-Aug-25 08:00N 31°59' W 072°24'1 1.1 1010.2 27.8
2014-Aug-25 07:00N 31°58' W 072°23'0 0.0 1010.5 27.8
2014-Aug-25 06:00N 31°58' W 072°23'1 1.3 1011.0 27.8
2014-Aug-25 05:00N 31°57' W 072°24'0 0.1 1011.3 27.8
2014-Aug-25 02:00N 31°57' W 072°24'1 1.0 1011.4 27.8
2014-Aug-25 01:00N 31°56' W 072°23'1 1.5 1011.1 27.8
2014-Aug-25 00:00N 31°56' W 072°22'0 0.0 1010.8 27.9
2014-Aug-24 22:00N 31°56' W 072°22'1 0.3 1010.4 27.9
2014-Aug-24 19:00N 31°55' W 072°21'0 0.0 1011.1 27.8
2014-Aug-24 17:00N 31°55' W 072°21'0 0.2 1012.5 27.7
2014-Aug-24 15:00N 31°56' W 072°22'0 0.3 1012.6 27.7
2014-Aug-24 14:00N 31°56' W 072°21'0 0.0 1011.7 27.7
2014-Aug-24 13:00N 31°56' W 072°21'1 1.1 1011.2 27.8
2014-Aug-24 12:00N 31°55' W 072°23'0 0.0 1010.5 27.2
2014-Aug-24 11:00N 31°55' W 072°23'0 0.3 1010.2 27.1
2014-Aug-24 10:00N 31°55' W 072°22'0 0.0 1010.6 28.0
2014-Aug-24 09:00N 31°55' W 072°22'0 0.2 1010.3 28.0
2014-Aug-24 08:00N 31°54' W 072°22'1 0.7 1010.4 28.0
2014-Aug-24 07:00N 31°54' W 072°23'0 0.1 1010.8 28.0
2014-Aug-24 06:00N 31°54' W 072°23'1 0.5 1011.3 28.0
2014-Aug-24 03:00N 31°53' W 072°23'1 1.4 1012.3 27.8
2014-Aug-24 02:00N 31°52' W 072°22'0 0.3 1012.6 27.9
2014-Aug-24 01:00N 31°52' W 072°22'0 0.2 1012.7 27.8
2014-Aug-24 00:00N 31°52' W 072°22'2 0.6 1012.6 28.0
2014-Aug-23 21:00N 31°51' W 072°20'0 0.1 1011.9 28.1
2014-Aug-23 20:00N 31°51' W 072°20'1 0.6 1012.4 28.1
2014-Aug-23 19:00N 31°51' W 072°20'0 0.2 1013.0 28.1
2014-Aug-23 17:00N 31°51' W 072°19'1 0.2 1013.9 28.0
2014-Aug-23 14:00N 31°52' W 072°19'1 0.7 1014.1 27.9
2014-Aug-23 13:00N 31°51' W 072°20'0 0.0 1014.0 27.9
2014-Aug-23 12:00N 31°51' W 072°20'0 0.2 1014.1 27.9
2014-Aug-23 10:00N 31°51' W 072°20'0 0.2 1013.1 27.9
2014-Aug-23 09:00N 31°51' W 072°20'0 0.4 1013.1 27.9
2014-Aug-23 08:00N 31°51' W 072°20'2 0.9 1012.9 28.0
2014-Aug-23 06:00N 31°50' W 072°18'0 0.0 1014.0 28.0
2014-Aug-23 02:00N 31°50' W 072°18'1 0.6 1015.2 28.0
2014-Aug-23 01:00N 31°51' W 072°18'0 0.2 1015.4 28.0
2014-Aug-22 23:00N 31°51' W 072°17'0 0.4 1014.8 28.1
2014-Aug-22 22:00N 31°51' W 072°18'0 0.1 1015.1 28.1
2014-Aug-22 20:00N 31°51' W 072°18'1 0.1 1015.6 28.1
2014-Aug-22 15:00N 31°52' W 072°18'0 0.0 1017.6 28.0
2014-Aug-22 14:00N 31°52' W 072°18'0 0.1 1018.2 28.0
2014-Aug-22 11:00N 31°51' W 072°18'1 0.6 1017.5 27.9
2014-Aug-22 10:00N 31°51' W 072°18'0 0.1 1017.1 27.9
2014-Aug-22 09:00N 31°51' W 072°18'1 0.6 1017.1 28.0
2014-Aug-22 08:00N 31°50' W 072°18'1 0.5 1017.2 28.0
2014-Aug-22 06:00N 31°50' W 072°17'0 0.1 1017.7 28.0
2014-Aug-22 02:00N 31°51' W 072°17'   1018.9 28.0

Dump ship's entire track history